sensor_id;sensor_type;location;lat;lon;timestamp;pressure;altitude;pressure_sealevel;temperature;humidity
68107;BME280;54892;47.488;19.026;2023-05-07T00:02:35;100009.87;;;16.47;73.50
68107;BME280;54892;47.488;19.026;2023-05-07T00:05:39;100012.00;;;16.31;74.15
68107;BME280;54892;47.488;19.026;2023-05-07T00:08:44;100011.03;;;16.27;74.59
68107;BME280;54892;47.488;19.026;2023-05-07T00:11:47;100012.88;;;16.26;75.02
68107;BME280;54892;47.488;19.026;2023-05-07T00:14:50;100007.06;;;16.24;74.98
68107;BME280;54892;47.488;19.026;2023-05-07T00:17:53;100009.09;;;16.13;75.67
68107;BME280;54892;47.488;19.026;2023-05-07T00:20:56;100011.62;;;16.05;75.66
68107;BME280;54892;47.488;19.026;2023-05-07T00:24:01;100006.78;;;15.93;75.83
68107;BME280;54892;47.488;19.026;2023-05-07T00:27:04;100008.38;;;15.94;75.45
68107;BME280;54892;47.488;19.026;2023-05-07T00:30:07;100011.88;;;15.89;75.59
68107;BME280;54892;47.488;19.026;2023-05-07T00:33:11;100007.34;;;15.90;75.72
68107;BME280;54892;47.488;19.026;2023-05-07T00:36:14;100009.28;;;15.84;76.16
68107;BME280;54892;47.488;19.026;2023-05-07T00:39:18;100008.97;;;16.05;75.44
68107;BME280;54892;47.488;19.026;2023-05-07T00:42:21;100006.91;;;15.82;76.42
68107;BME280;54892;47.488;19.026;2023-05-07T00:45:26;100014.47;;;15.75;76.94
68107;BME280;54892;47.488;19.026;2023-05-07T00:48:29;100017.50;;;15.68;77.44
68107;BME280;54892;47.488;19.026;2023-05-07T00:51:32;100018.28;;;15.69;77.56
68107;BME280;54892;47.488;19.026;2023-05-07T00:54:37;100020.44;;;15.67;77.80
68107;BME280;54892;47.488;19.026;2023-05-07T00:57:40;100020.22;;;15.63;78.09
68107;BME280;54892;47.488;19.026;2023-05-07T01:00:44;100020.78;;;15.60;78.67
68107;BME280;54892;47.488;19.026;2023-05-07T01:03:47;100024.41;;;15.70;78.05
68107;BME280;54892;47.488;19.026;2023-05-07T01:06:50;100015.53;;;15.74;77.92
68107;BME280;54892;47.488;19.026;2023-05-07T01:09:54;100022.72;;;15.74;77.80
68107;BME280;54892;47.488;19.026;2023-05-07T01:12:57;100018.22;;;15.74;77.72
68107;BME280;54892;47.488;19.026;2023-05-07T01:16:02;100021.28;;;15.81;77.29
68107;BME280;54892;47.488;19.026;2023-05-07T01:19:05;100011.88;;;15.89;76.92
68107;BME280;54892;47.488;19.026;2023-05-07T01:22:10;100017.63;;;15.58;77.67
68107;BME280;54892;47.488;19.026;2023-05-07T01:25:14;100027.41;;;15.44;78.08
68107;BME280;54892;47.488;19.026;2023-05-07T01:28:18;100039.47;;;15.36;78.59
68107;BME280;54892;47.488;19.026;2023-05-07T01:31:21;100041.28;;;15.41;78.46
68107;BME280;54892;47.488;19.026;2023-05-07T01:34:25;100045.50;;;15.42;78.49
68107;BME280;54892;47.488;19.026;2023-05-07T01:37:28;100033.44;;;15.49;78.17
68107;BME280;54892;47.488;19.026;2023-05-07T01:40:33;100034.19;;;15.55;77.57
68107;BME280;54892;47.488;19.026;2023-05-07T01:43:36;100023.53;;;15.55;76.48
68107;BME280;54892;47.488;19.026;2023-05-07T01:46:39;100030.50;;;15.51;76.47
68107;BME280;54892;47.488;19.026;2023-05-07T01:49:42;100023.25;;;15.37;76.95
68107;BME280;54892;47.488;19.026;2023-05-07T01:52:45;100022.28;;;15.28;77.15
68107;BME280;54892;47.488;19.026;2023-05-07T01:55:50;100030.50;;;15.32;77.43
68107;BME280;54892;47.488;19.026;2023-05-07T01:58:53;100026.25;;;15.31;77.53
68107;BME280;54892;47.488;19.026;2023-05-07T02:01:56;100024.94;;;15.28;78.15
68107;BME280;54892;47.488;19.026;2023-05-07T02:04:59;100017.63;;;15.20;78.54
68107;BME280;54892;47.488;19.026;2023-05-07T02:08:02;100016.37;;;15.12;78.71
68107;BME280;54892;47.488;19.026;2023-05-07T02:11:06;100012.69;;;15.08;78.88
68107;BME280;54892;47.488;19.026;2023-05-07T02:14:10;100012.69;;;15.08;79.30
68107;BME280;54892;47.488;19.026;2023-05-07T02:17:13;100016.16;;;15.09;79.54
68107;BME280;54892;47.488;19.026;2023-05-07T02:20:16;100011.47;;;15.00;80.07
68107;BME280;54892;47.488;19.026;2023-05-07T02:23:19;100012.03;;;14.97;80.45
68107;BME280;54892;47.488;19.026;2023-05-07T02:26:23;100012.09;;;14.92;80.27
68107;BME280;54892;47.488;19.026;2023-05-07T02:29:27;100013.78;;;14.83;80.58
68107;BME280;54892;47.488;19.026;2023-05-07T02:32:30;99998.41;;;14.80;80.56
68107;BME280;54892;47.488;19.026;2023-05-07T02:35:33;99995.09;;;14.64;81.11
68107;BME280;54892;47.488;19.026;2023-05-07T02:38:36;99994.97;;;14.50;81.63
68107;BME280;54892;47.488;19.026;2023-05-07T02:41:40;100000.53;;;14.53;82.01
68107;BME280;54892;47.488;19.026;2023-05-07T02:44:43;99997.59;;;14.55;81.61
68107;BME280;54892;47.488;19.026;2023-05-07T02:47:46;99995.50;;;14.52;81.85
68107;BME280;54892;47.488;19.026;2023-05-07T02:50:49;99998.47;;;14.45;82.10
68107;BME280;54892;47.488;19.026;2023-05-07T02:53:52;99992.94;;;14.41;82.05
68107;BME280;54892;47.488;19.026;2023-05-07T02:56:57;100004.16;;;14.33;82.29
68107;BME280;54892;47.488;19.026;2023-05-07T03:00:09;100005.81;;;14.29;82.61
68107;BME280;54892;47.488;19.026;2023-05-07T03:03:12;100004.66;;;14.35;82.41
68107;BME280;54892;47.488;19.026;2023-05-07T03:06:15;100006.13;;;14.22;82.77
68107;BME280;54892;47.488;19.026;2023-05-07T03:09:18;100009.66;;;14.12;83.29
68107;BME280;54892;47.488;19.026;2023-05-07T03:12:22;100010.72;;;14.11;83.67
68107;BME280;54892;47.488;19.026;2023-05-07T03:15:26;100009.00;;;14.26;83.16
68107;BME280;54892;47.488;19.026;2023-05-07T03:18:29;100010.31;;;14.28;82.81
68107;BME280;54892;47.488;19.026;2023-05-07T03:21:32;100004.81;;;14.20;83.26
68107;BME280;54892;47.488;19.026;2023-05-07T03:24:35;100005.84;;;14.24;82.87
68107;BME280;54892;47.488;19.026;2023-05-07T03:27:40;100006.87;;;14.28;82.63
68107;BME280;54892;47.488;19.026;2023-05-07T03:30:43;100008.41;;;14.34;82.41
68107;BME280;54892;47.488;19.026;2023-05-07T03:33:50;100003.00;;;14.44;82.17
68107;BME280;54892;47.488;19.026;2023-05-07T03:36:53;100005.38;;;14.46;81.92
68107;BME280;54892;47.488;19.026;2023-05-07T03:39:57;100008.25;;;14.50;81.53
68107;BME280;54892;47.488;19.026;2023-05-07T03:43:01;99999.72;;;14.53;81.35
68107;BME280;54892;47.488;19.026;2023-05-07T03:46:04;100007.88;;;14.61;81.44
68107;BME280;54892;47.488;19.026;2023-05-07T03:49:07;100004.06;;;14.73;80.83
68107;BME280;54892;47.488;19.026;2023-05-07T03:52:10;100014.34;;;14.80;80.50
68107;BME280;54892;47.488;19.026;2023-05-07T03:55:13;100013.91;;;14.72;80.61
68107;BME280;54892;47.488;19.026;2023-05-07T03:58:17;100012.63;;;14.70;80.55
68107;BME280;54892;47.488;19.026;2023-05-07T04:01:20;100020.59;;;14.65;80.66
68107;BME280;54892;47.488;19.026;2023-05-07T04:04:23;100018.50;;;14.61;80.51
68107;BME280;54892;47.488;19.026;2023-05-07T04:07:26;100021.53;;;14.50;81.09
68107;BME280;54892;47.488;19.026;2023-05-07T04:10:29;100017.13;;;14.40;81.72
68107;BME280;54892;47.488;19.026;2023-05-07T04:13:33;100013.53;;;14.55;80.95
68107;BME280;54892;47.488;19.026;2023-05-07T04:16:37;100014.97;;;14.42;81.57
68107;BME280;54892;47.488;19.026;2023-05-07T04:19:39;100030.25;;;14.26;82.69
68107;BME280;54892;47.488;19.026;2023-05-07T04:22:46;100035.00;;;14.29;82.68
68107;BME280;54892;47.488;19.026;2023-05-07T04:25:49;100033.56;;;14.12;83.45
68107;BME280;54892;47.488;19.026;2023-05-07T04:28:54;100047.56;;;14.18;83.30
68107;BME280;54892;47.488;19.026;2023-05-07T04:31:57;100046.75;;;14.18;83.53
68107;BME280;54892;47.488;19.026;2023-05-07T04:35:00;100047.56;;;14.18;83.60
68107;BME280;54892;47.488;19.026;2023-05-07T04:38:03;100047.34;;;14.14;83.93
68107;BME280;54892;47.488;19.026;2023-05-07T04:41:06;100054.13;;;14.31;83.45
68107;BME280;54892;47.488;19.026;2023-05-07T04:44:10;100055.19;;;14.30;83.53
68107;BME280;54892;47.488;19.026;2023-05-07T04:47:13;100051.03;;;14.48;83.06
68107;BME280;54892;47.488;19.026;2023-05-07T04:50:16;100048.53;;;14.62;82.60
68107;BME280;54892;47.488;19.026;2023-05-07T04:53:20;100049.88;;;14.89;81.41
68107;BME280;54892;47.488;19.026;2023-05-07T04:56:23;100053.31;;;15.14;80.86
68107;BME280;54892;47.488;19.026;2023-05-07T04:59:27;100056.50;;;15.35;79.36
68107;BME280;54892;47.488;19.026;2023-05-07T05:02:30;100044.88;;;15.50;78.97
68107;BME280;54892;47.488;19.026;2023-05-07T05:05:34;100048.34;;;15.70;78.38
68107;BME280;54892;47.488;19.026;2023-05-07T05:08:37;100047.84;;;15.87;78.43
68107;BME280;54892;47.488;19.026;2023-05-07T05:11:40;100057.91;;;16.09;77.39
68107;BME280;54892;47.488;19.026;2023-05-07T05:14:44;100054.22;;;16.38;76.14
68107;BME280;54892;47.488;19.026;2023-05-07T05:17:47;100052.12;;;16.68;73.16
68107;BME280;54892;47.488;19.026;2023-05-07T05:20:51;100056.84;;;16.71;73.17
68107;BME280;54892;47.488;19.026;2023-05-07T05:23:54;100059.81;;;16.83;73.33
68107;BME280;54892;47.488;19.026;2023-05-07T05:26:57;100056.28;;;16.74;73.63
68107;BME280;54892;47.488;19.026;2023-05-07T05:30:02;100057.84;;;16.75;73.32
68107;BME280;54892;47.488;19.026;2023-05-07T05:33:06;100065.50;;;16.96;73.86
68107;BME280;54892;47.488;19.026;2023-05-07T05:36:10;100058.97;;;17.02;73.04
68107;BME280;54892;47.488;19.026;2023-05-07T05:39:15;100060.87;;;17.01;72.02
68107;BME280;54892;47.488;19.026;2023-05-07T05:42:18;100063.09;;;16.94;70.64
68107;BME280;54892;47.488;19.026;2023-05-07T05:45:23;100048.56;;;16.86;70.87
68107;BME280;54892;47.488;19.026;2023-05-07T05:48:26;100049.97;;;16.98;71.32
68107;BME280;54892;47.488;19.026;2023-05-07T05:51:29;100057.50;;;16.96;72.64
68107;BME280;54892;47.488;19.026;2023-05-07T05:54:32;100057.50;;;16.96;72.72
68107;BME280;54892;47.488;19.026;2023-05-07T05:57:35;100055.81;;;17.00;72.45
68107;BME280;54892;47.488;19.026;2023-05-07T06:00:39;100055.09;;;16.80;73.59
68107;BME280;54892;47.488;19.026;2023-05-07T06:03:42;100055.88;;;16.81;73.07
68107;BME280;54892;47.488;19.026;2023-05-07T06:06:45;100053.03;;;16.91;72.40
68107;BME280;54892;47.488;19.026;2023-05-07T06:09:48;100047.72;;;17.05;72.78
68107;BME280;54892;47.488;19.026;2023-05-07T06:12:51;100053.84;;;17.19;71.62
68107;BME280;54892;47.488;19.026;2023-05-07T06:15:56;100053.91;;;17.42;71.40
68107;BME280;54892;47.488;19.026;2023-05-07T06:18:59;100056.69;;;17.37;71.58
68107;BME280;54892;47.488;19.026;2023-05-07T06:22:02;100057.75;;;17.50;70.82
68107;BME280;54892;47.488;19.026;2023-05-07T06:25:05;100058.44;;;17.56;71.17
68107;BME280;54892;47.488;19.026;2023-05-07T06:28:09;100067.28;;;17.65;71.44
68107;BME280;54892;47.488;19.026;2023-05-07T06:31:14;100061.50;;;17.86;71.63
68107;BME280;54892;47.488;19.026;2023-05-07T06:34:17;100062.00;;;18.10;71.49
68107;BME280;54892;47.488;19.026;2023-05-07T06:37:21;100065.16;;;18.13;70.58
68107;BME280;54892;47.488;19.026;2023-05-07T06:40:25;100067.94;;;18.53;69.00
68107;BME280;54892;47.488;19.026;2023-05-07T06:43:28;100074.22;;;18.57;69.71
68107;BME280;54892;47.488;19.026;2023-05-07T06:46:33;100073.28;;;18.93;68.12
68107;BME280;54892;47.488;19.026;2023-05-07T06:49:36;100068.47;;;18.72;67.78
68107;BME280;54892;47.488;19.026;2023-05-07T06:52:38;100070.34;;;19.04;68.11
68107;BME280;54892;47.488;19.026;2023-05-07T06:55:41;100070.53;;;19.16;66.84
68107;BME280;54892;47.488;19.026;2023-05-07T06:58:44;100061.78;;;19.33;65.93
68107;BME280;54892;47.488;19.026;2023-05-07T07:01:49;100066.97;;;19.56;64.54
68107;BME280;54892;47.488;19.026;2023-05-07T07:04:52;100067.16;;;19.59;63.47
68107;BME280;54892;47.488;19.026;2023-05-07T07:07:55;100066.69;;;19.57;61.22
68107;BME280;54892;47.488;19.026;2023-05-07T07:10:58;100063.22;;;19.66;61.83
68107;BME280;54892;47.488;19.026;2023-05-07T07:14:01;100072.31;;;19.21;61.14
68107;BME280;54892;47.488;19.026;2023-05-07T07:17:08;100078.91;;;19.23;63.04
68107;BME280;54892;47.488;19.026;2023-05-07T07:20:11;100083.63;;;19.17;61.33
68107;BME280;54892;47.488;19.026;2023-05-07T07:23:14;100089.75;;;19.18;62.56
68107;BME280;54892;47.488;19.026;2023-05-07T07:26:17;100097.63;;;19.14;62.07
68107;BME280;54892;47.488;19.026;2023-05-07T07:29:20;100106.28;;;19.20;61.11
68107;BME280;54892;47.488;19.026;2023-05-07T07:32:25;100102.69;;;19.33;59.95
68107;BME280;54892;47.488;19.026;2023-05-07T07:35:28;100103.19;;;19.36;60.10
68107;BME280;54892;47.488;19.026;2023-05-07T07:38:31;100099.50;;;19.89;59.31
68107;BME280;54892;47.488;19.026;2023-05-07T07:41:34;100100.00;;;21.34;54.88
68107;BME280;54892;47.488;19.026;2023-05-07T07:44:37;100106.78;;;22.59;51.81
68107;BME280;54892;47.488;19.026;2023-05-07T07:47:42;100109.03;;;23.97;47.66
68107;BME280;54892;47.488;19.026;2023-05-07T07:50:45;100109.97;;;24.33;44.81
68107;BME280;54892;47.488;19.026;2023-05-07T07:53:51;100119.41;;;23.82;46.31
68107;BME280;54892;47.488;19.026;2023-05-07T07:56:54;100122.06;;;23.41;46.10
68107;BME280;54892;47.488;19.026;2023-05-07T07:59:57;100110.94;;;22.69;47.98
68107;BME280;54892;47.488;19.026;2023-05-07T08:03:05;100108.37;;;22.05;50.54
68107;BME280;54892;47.488;19.026;2023-05-07T08:09:11;100113.59;;;21.08;53.60
68107;BME280;54892;47.488;19.026;2023-05-07T08:12:15;100113.56;;;20.69;55.12
68107;BME280;54892;47.488;19.026;2023-05-07T08:15:18;100110.56;;;20.62;56.44
68107;BME280;54892;47.488;19.026;2023-05-07T08:18:22;100112.97;;;20.54;57.88
68107;BME280;54892;47.488;19.026;2023-05-07T08:21:26;100107.25;;;20.65;56.95
68107;BME280;54892;47.488;19.026;2023-05-07T08:24:29;100101.81;;;20.26;57.75
68107;BME280;54892;47.488;19.026;2023-05-07T08:27:32;100111.13;;;20.20;59.56
68107;BME280;54892;47.488;19.026;2023-05-07T08:30:35;100098.50;;;20.38;61.24
68107;BME280;54892;47.488;19.026;2023-05-07T08:33:39;100092.38;;;20.11;62.94
68107;BME280;54892;47.488;19.026;2023-05-07T08:36:42;100098.53;;;20.03;63.25
68107;BME280;54892;47.488;19.026;2023-05-07T08:39:45;100090.34;;;20.08;61.88
68107;BME280;54892;47.488;19.026;2023-05-07T08:42:48;100095.53;;;19.96;62.36
68107;BME280;54892;47.488;19.026;2023-05-07T08:45:52;100097.25;;;20.09;62.65
68107;BME280;54892;47.488;19.026;2023-05-07T08:48:57;100098.66;;;20.42;62.11
68107;BME280;54892;47.488;19.026;2023-05-07T08:52:01;100097.63;;;20.64;60.75
68107;BME280;54892;47.488;19.026;2023-05-07T08:55:04;100105.66;;;20.81;59.56
68107;BME280;54892;47.488;19.026;2023-05-07T08:58:08;100104.31;;;20.96;60.94
68107;BME280;54892;47.488;19.026;2023-05-07T09:01:12;100102.13;;;20.90;61.80
68107;BME280;54892;47.488;19.026;2023-05-07T09:04:17;100097.16;;;21.09;60.72
68107;BME280;54892;47.488;19.026;2023-05-07T09:07:20;100099.13;;;21.00;61.37
68107;BME280;54892;47.488;19.026;2023-05-07T09:10:22;100105.59;;;20.99;61.82
68107;BME280;54892;47.488;19.026;2023-05-07T09:13:26;100098.91;;;21.05;61.50
68107;BME280;54892;47.488;19.026;2023-05-07T09:16:30;100097.44;;;21.17;61.90
68107;BME280;54892;47.488;19.026;2023-05-07T09:19:34;100097.87;;;21.19;61.61
68107;BME280;54892;47.488;19.026;2023-05-07T09:22:37;100096.56;;;21.34;60.18
68107;BME280;54892;47.488;19.026;2023-05-07T09:25:40;100105.09;;;21.57;60.31
68107;BME280;54892;47.488;19.026;2023-05-07T09:28:43;100099.50;;;21.71;59.06
68107;BME280;54892;47.488;19.026;2023-05-07T09:31:48;100096.28;;;21.78;60.86
68107;BME280;54892;47.488;19.026;2023-05-07T09:34:52;100090.88;;;21.99;59.50
68107;BME280;54892;47.488;19.026;2023-05-07T09:37:55;100092.16;;;22.14;59.02
68107;BME280;54892;47.488;19.026;2023-05-07T09:41:01;100092.66;;;22.28;58.60
68107;BME280;54892;47.488;19.026;2023-05-07T09:44:05;100098.72;;;22.25;57.00
68107;BME280;54892;47.488;19.026;2023-05-07T09:47:09;100092.00;;;22.31;56.95
68107;BME280;54892;47.488;19.026;2023-05-07T09:50:14;100093.38;;;22.38;55.93
68107;BME280;54892;47.488;19.026;2023-05-07T09:53:18;100095.69;;;22.27;56.51
68107;BME280;54892;47.488;19.026;2023-05-07T09:56:21;100093.50;;;22.08;56.16
68107;BME280;54892;47.488;19.026;2023-05-07T09:59:25;100096.34;;;21.90;57.38
68107;BME280;54892;47.488;19.026;2023-05-07T10:02:30;100099.81;;;21.69;57.35
68107;BME280;54892;47.488;19.026;2023-05-07T10:05:34;100100.59;;;21.49;58.18
68107;BME280;54892;47.488;19.026;2023-05-07T10:08:38;100096.28;;;21.26;58.99
68107;BME280;54892;47.488;19.026;2023-05-07T10:11:41;100099.38;;;21.07;60.18
68107;BME280;54892;47.488;19.026;2023-05-07T10:14:44;100102.75;;;20.95;60.65
68107;BME280;54892;47.488;19.026;2023-05-07T10:17:48;100096.34;;;20.79;60.49
68107;BME280;54892;47.488;19.026;2023-05-07T10:20:53;100105.66;;;20.73;60.61
68107;BME280;54892;47.488;19.026;2023-05-07T10:23:57;100102.53;;;20.62;60.37
68107;BME280;54892;47.488;19.026;2023-05-07T10:27:01;100104.75;;;20.60;60.50
68107;BME280;54892;47.488;19.026;2023-05-07T10:30:07;100102.53;;;20.62;59.80
68107;BME280;54892;47.488;19.026;2023-05-07T10:33:15;100101.75;;;20.61;57.44
68107;BME280;54892;47.488;19.026;2023-05-07T10:36:21;100095.44;;;20.66;57.55
68107;BME280;54892;47.488;19.026;2023-05-07T10:39:24;100100.16;;;20.78;57.31
68107;BME280;54892;47.488;19.026;2023-05-07T10:42:27;100106.22;;;20.96;56.26
68107;BME280;54892;47.488;19.026;2023-05-07T10:45:31;100104.56;;;21.12;57.83
68107;BME280;54892;47.488;19.026;2023-05-07T10:48:34;100106.97;;;21.35;58.39
68107;BME280;54892;47.488;19.026;2023-05-07T10:51:39;100098.06;;;21.43;57.83
68107;BME280;54892;47.488;19.026;2023-05-07T10:54:42;100105.09;;;21.57;57.32
68107;BME280;54892;47.488;19.026;2023-05-07T10:57:45;100098.88;;;21.65;56.97
68107;BME280;54892;47.488;19.026;2023-05-07T11:00:48;100089.81;;;21.79;57.74
68107;BME280;54892;47.488;19.026;2023-05-07T11:07:21;100097.69;;;21.96;57.21
68107;BME280;54892;47.488;19.026;2023-05-07T11:13:44;100084.09;;;21.80;54.25
68107;BME280;54892;47.488;19.026;2023-05-07T11:16:47;100084.59;;;21.95;50.98
68107;BME280;54892;47.488;19.026;2023-05-07T11:19:50;100086.88;;;22.05;50.53
68107;BME280;54892;47.488;19.026;2023-05-07T11:22:55;100087.69;;;22.18;50.16
68107;BME280;54892;47.488;19.026;2023-05-07T11:25:58;100089.19;;;22.28;49.63
68107;BME280;54892;47.488;19.026;2023-05-07T11:29:02;100094.94;;;22.39;49.22
68107;BME280;54892;47.488;19.026;2023-05-07T11:32:05;100089.22;;;22.40;47.83
68107;BME280;54892;47.488;19.026;2023-05-07T11:35:09;100102.75;;;22.31;47.68
68107;BME280;54892;47.488;19.026;2023-05-07T11:38:13;100102.19;;;22.38;47.77
68107;BME280;54892;47.488;19.026;2023-05-07T11:41:17;100094.87;;;22.47;46.86
68107;BME280;54892;47.488;19.026;2023-05-07T11:44:21;100086.72;;;22.56;46.63
68107;BME280;54892;47.488;19.026;2023-05-07T11:47:24;100082.91;;;22.70;46.25
68107;BME280;54892;47.488;19.026;2023-05-07T11:50:27;100084.22;;;22.51;46.66
68107;BME280;54892;47.488;19.026;2023-05-07T11:53:36;100088.06;;;22.29;46.48
68107;BME280;54892;47.488;19.026;2023-05-07T11:56:40;100085.09;;;22.09;47.22
68107;BME280;54892;47.488;19.026;2023-05-07T11:59:43;100079.56;;;22.27;47.18
68107;BME280;54892;47.488;19.026;2023-05-07T12:02:46;100078.09;;;22.29;46.74
68107;BME280;54892;47.488;19.026;2023-05-07T12:05:49;100082.84;;;22.45;47.12
68107;BME280;54892;47.488;19.026;2023-05-07T12:08:53;100074.53;;;22.38;46.52
68107;BME280;54892;47.488;19.026;2023-05-07T12:11:57;100076.31;;;22.33;46.90
68107;BME280;54892;47.488;19.026;2023-05-07T12:15:05;100063.44;;;22.39;46.69
68107;BME280;54892;47.488;19.026;2023-05-07T12:18:09;100062.03;;;22.42;46.18
68107;BME280;54892;47.488;19.026;2023-05-07T12:21:12;100062.75;;;22.30;45.43
68107;BME280;54892;47.488;19.026;2023-05-07T12:24:17;100066.19;;;22.18;46.10
68107;BME280;54892;47.488;19.026;2023-05-07T12:27:22;100065.97;;;22.11;47.76
68107;BME280;54892;47.488;19.026;2023-05-07T12:30:25;100063.28;;;22.11;47.32
68107;BME280;54892;47.488;19.026;2023-05-07T12:33:28;100065.16;;;22.10;46.15
68107;BME280;54892;47.488;19.026;2023-05-07T12:36:36;100060.87;;;21.97;46.26
68107;BME280;54892;47.488;19.026;2023-05-07T12:39:46;100057.19;;;22.01;46.42
68107;BME280;54892;47.488;19.026;2023-05-07T12:42:52;100054.37;;;21.98;47.03
68107;BME280;54892;47.488;19.026;2023-05-07T12:45:56;100055.91;;;21.86;47.22
68107;BME280;54892;47.488;19.026;2023-05-07T12:49:00;100051.06;;;21.80;47.21
68107;BME280;54892;47.488;19.026;2023-05-07T12:52:03;100053.16;;;21.74;45.44
68107;BME280;54892;47.488;19.026;2023-05-07T12:55:08;100061.44;;;21.69;45.62
68107;BME280;54892;47.488;19.026;2023-05-07T12:58:14;100061.28;;;21.65;46.21
68107;BME280;54892;47.488;19.026;2023-05-07T13:01:18;100055.78;;;21.62;46.49
68107;BME280;54892;47.488;19.026;2023-05-07T13:04:23;100052.00;;;21.63;46.43
68107;BME280;54892;47.488;19.026;2023-05-07T13:07:27;100052.25;;;21.70;47.25
68107;BME280;54892;47.488;19.026;2023-05-07T13:10:32;100052.62;;;21.81;46.14
68107;BME280;54892;47.488;19.026;2023-05-07T13:13:36;100049.16;;;21.80;45.66
68107;BME280;54892;47.488;19.026;2023-05-07T13:16:39;100044.91;;;21.79;45.34
68107;BME280;54892;47.488;19.026;2023-05-07T13:19:43;100051.06;;;21.80;46.35
68107;BME280;54892;47.488;19.026;2023-05-07T13:22:46;100042.88;;;21.76;46.52
68107;BME280;54892;47.488;19.026;2023-05-07T13:25:50;100038.75;;;21.79;46.25
68107;BME280;54892;47.488;19.026;2023-05-07T13:28:54;100039.38;;;21.97;45.72
68107;BME280;54892;47.488;19.026;2023-05-07T13:31:57;100027.53;;;22.10;43.96
68107;BME280;54892;47.488;19.026;2023-05-07T13:35:01;100039.50;;;22.00;44.13
68107;BME280;54892;47.488;19.026;2023-05-07T13:38:05;100041.25;;;21.96;44.24
68107;BME280;54892;47.488;19.026;2023-05-07T13:41:09;100036.87;;;21.92;44.35
68107;BME280;54892;47.488;19.026;2023-05-07T13:44:14;100021.25;;;22.06;43.13
68107;BME280;54892;47.488;19.026;2023-05-07T13:47:18;100020.75;;;22.25;43.11
68107;BME280;54892;47.488;19.026;2023-05-07T13:50:22;100022.31;;;22.26;44.22
68107;BME280;54892;47.488;19.026;2023-05-07T13:53:25;100026.81;;;22.34;44.40
68107;BME280;54892;47.488;19.026;2023-05-07T13:56:29;100024.88;;;22.35;44.80
68107;BME280;54892;47.488;19.026;2023-05-07T13:59:33;100029.38;;;22.31;44.78
68107;BME280;54892;47.488;19.026;2023-05-07T14:02:36;100025.44;;;22.28;45.00
68107;BME280;54892;47.488;19.026;2023-05-07T14:05:39;100013.53;;;22.04;44.96
68107;BME280;54892;47.488;19.026;2023-05-07T14:08:43;100016.19;;;21.92;44.04
68107;BME280;54892;47.488;19.026;2023-05-07T14:11:48;100018.78;;;22.01;44.23
68107;BME280;54892;47.488;19.026;2023-05-07T14:14:52;100017.53;;;21.98;44.53
68107;BME280;54892;47.488;19.026;2023-05-07T14:17:55;100013.28;;;21.97;44.57
68107;BME280;54892;47.488;19.026;2023-05-07T14:21:00;100010.63;;;22.10;44.79
68107;BME280;54892;47.488;19.026;2023-05-07T14:24:05;100009.94;;;22.13;44.07
68107;BME280;54892;47.488;19.026;2023-05-07T14:27:10;100014.66;;;22.16;45.01
68107;BME280;54892;47.488;19.026;2023-05-07T14:30:13;100016.66;;;22.07;44.68
68107;BME280;54892;47.488;19.026;2023-05-07T14:33:16;100010.19;;;22.08;45.08
68107;BME280;54892;47.488;19.026;2023-05-07T14:36:19;100017.81;;;22.18;45.09
68107;BME280;54892;47.488;19.026;2023-05-07T14:39:24;100024.00;;;22.18;45.14
68107;BME280;54892;47.488;19.026;2023-05-07T14:42:28;100030.25;;;22.23;45.02
68107;BME280;54892;47.488;19.026;2023-05-07T14:45:31;100022.06;;;22.19;45.19
68107;BME280;54892;47.488;19.026;2023-05-07T14:48:35;100024.88;;;22.23;45.70
68107;BME280;54892;47.488;19.026;2023-05-07T14:51:38;100028.13;;;22.28;45.37
68107;BME280;54892;47.488;19.026;2023-05-07T14:54:41;100028.81;;;22.25;45.01
68107;BME280;54892;47.488;19.026;2023-05-07T14:57:45;100030.09;;;22.07;45.56
68107;BME280;54892;47.488;19.026;2023-05-07T15:00:49;100032.12;;;22.10;46.03
68107;BME280;54892;47.488;19.026;2023-05-07T15:03:52;100022.50;;;22.09;46.70
68107;BME280;54892;47.488;19.026;2023-05-07T15:06:56;100031.22;;;22.05;46.38
68107;BME280;54892;47.488;19.026;2023-05-07T15:09:59;100030.31;;;22.01;46.41
68107;BME280;54892;47.488;19.026;2023-05-07T15:13:04;100028.06;;;22.03;47.00
68107;BME280;54892;47.488;19.026;2023-05-07T15:16:06;100029.31;;;22.06;46.88
68107;BME280;54892;47.488;19.026;2023-05-07T15:19:09;100038.50;;;22.05;46.21
68107;BME280;54892;47.488;19.026;2023-05-07T15:22:13;100046.31;;;21.98;46.64
68107;BME280;54892;47.488;19.026;2023-05-07T15:25:18;100039.91;;;21.90;46.68
68107;BME280;54892;47.488;19.026;2023-05-07T15:28:26;100043.22;;;21.74;47.53
68107;BME280;54892;47.488;19.026;2023-05-07T15:31:33;100045.91;;;21.74;46.68
68107;BME280;54892;47.488;19.026;2023-05-07T15:34:37;100038.50;;;21.71;46.61
68107;BME280;54892;47.488;19.026;2023-05-07T15:37:40;100042.03;;;21.63;45.96
68107;BME280;54892;47.488;19.026;2023-05-07T15:40:43;100040.63;;;21.57;45.67
68107;BME280;54892;47.488;19.026;2023-05-07T15:43:49;100040.00;;;21.60;45.79
68107;BME280;54892;47.488;19.026;2023-05-07T15:46:53;100038.25;;;21.64;45.00
68107;BME280;54892;47.488;19.026;2023-05-07T15:49:56;100050.47;;;21.74;45.19
68107;BME280;54892;47.488;19.026;2023-05-07T15:52:59;100040.72;;;21.69;44.20
68107;BME280;54892;47.488;19.026;2023-05-07T15:56:02;100040.41;;;21.71;44.47
68107;BME280;54892;47.488;19.026;2023-05-07T15:59:08;100042.03;;;21.63;43.57